Terminal Aerodrome Forecast
Issued by NWS

Home | Current Version | Previous Version | Text Only | Print | Product List | Glossary On
Versions: 1 2 3 4 5 6 7 8 9 10 11 12 13 14 15 16 17
000
FTUS45 KGJT 222126 AAA
TAFASE
TAF AMD
KASE 222126Z 2221/2318 35011KT P6SM VCSH SCT070 BKN100
      TEMPO 2221/2224 VRB15G26KT -SHRA BKN060 BKN100
     FM230000 21010G20KT P6SM VCSH SCT060 BKN080
     FM230200 18005KT P6SM VCSH SCT070 BKN110
     FM231200 15004KT P6SM SCT060 BKN070=

USA.gov is the U.S. government's official web portal to all federal, state and local government web resources and services.